EGPB/LSI METAR and TAF weather

Enter ICAO airport designator
Station Type Date Time Source
EGPB METAR 2018/06/25 16:50 UTC NOAA

EGPB 251650Z 27009KT 9000 BKN004 BKN019 11/10 Q1027


Station Type Date Time Source
EGPB Decoded METAR 2018/06/25 16:50 UTC NOAA

Sumburgh Cape , United Kingdom (EGPB) 59-53N 001-18W
Jun 25, 2018 - 12:50 PM EDT / 2018.06.25 1650 UTC
Wind: from the W (270 degrees) at 10 MPH (9 KT):0
Visibility: 5 mile(s):0
Sky conditions: mostly cloudy
Temperature: 51 F (11 C)
Dew Point: 50 F (10 C)
Relative Humidity: 93%
Pressure (altimeter): 30.33 in. Hg (1027 hPa)
ob: EGPB 251650Z 27009KT 9000 BKN004 BKN019 11/10 Q1027
cycle: 17

Station Type Date Time Source
EGPB TAF UTC NOAA

Error!


Example: see airport list